createdAt,value
2023-02-16T00:02:36.712Z,87.4
2023-02-16T00:05:38.583Z,100.2
2023-02-16T00:08:40.561Z,98.6
2023-02-16T00:11:42.549Z,81.4
2023-02-16T00:14:44.479Z,94.4
2023-02-16T00:17:46.453Z,95.5
2023-02-16T00:20:48.410Z,86.6
2023-02-16T00:23:50.384Z,96.8
2023-02-16T00:26:52.344Z,104.3
2023-02-16T00:29:54.380Z,95.1
2023-02-16T00:32:56.291Z,95.2
2023-02-16T00:35:58.272Z,95.6
2023-02-16T00:39:00.289Z,103.9
2023-02-16T00:42:02.239Z,99.4
2023-02-16T00:45:04.162Z,96.1
2023-02-16T00:48:06.126Z,107.5
2023-02-16T00:51:20.428Z,117.7
2023-02-16T00:54:10.106Z,122.4
2023-02-16T00:57:12.016Z,89.6
2023-02-16T01:00:14.039Z,106.6
2023-02-16T01:03:15.950Z,91.7
2023-02-16T01:06:17.895Z,110.1
2023-02-16T01:09:19.864Z,99.5
2023-02-16T01:12:21.820Z,105.8
2023-02-16T01:15:23.793Z,99.3
2023-02-16T01:18:25.740Z,105.1
2023-02-16T01:21:27.692Z,120.6
2023-02-16T01:24:29.669Z,123.6
2023-02-16T01:27:31.693Z,122.8
2023-02-16T01:30:33.708Z,127.8
2023-02-16T01:33:35.602Z,116.1
2023-02-16T01:36:37.534Z,133.7
2023-02-16T01:39:39.516Z,126.7
2023-02-16T01:42:41.424Z,133.1
2023-02-16T01:45:43.441Z,111
2023-02-16T01:48:45.399Z,108.4
2023-02-16T01:51:47.331Z,113
2023-02-16T01:54:49.304Z,118.5
2023-02-16T01:57:51.288Z,133.3
2023-02-16T02:00:53.227Z,123.6
2023-02-16T02:03:55.207Z,126.8
2023-02-16T02:06:57.157Z,120.1
2023-02-16T02:09:59.159Z,134.1
2023-02-16T02:13:01.145Z,119.5
2023-02-16T02:16:03.113Z,123.5
2023-02-16T02:19:05.001Z,117.8
2023-02-16T02:22:06.990Z,141
2023-02-16T02:25:08.907Z,132.1
2023-02-16T02:28:10.904Z,120.2
2023-02-16T02:31:12.975Z,108.2
2023-02-16T02:34:14.841Z,123.7
2023-02-16T02:37:16.816Z,122.1
2023-02-16T02:40:18.751Z,117.4
2023-02-16T02:43:20.689Z,130.8
2023-02-16T02:46:22.712Z,119.4
2023-02-16T02:49:24.665Z,149.7
2023-02-16T02:52:26.573Z,158.6
2023-02-16T02:55:28.557Z,158.6
2023-02-16T02:58:30.527Z,136
2023-02-16T03:01:32.490Z,142.8
2023-02-16T03:04:34.462Z,145.5
2023-02-16T03:07:36.417Z,153.3
2023-02-16T03:10:38.399Z,127.4
2023-02-16T03:13:40.316Z,154.4
2023-02-16T03:16:42.289Z,122.1
2023-02-16T03:19:44.246Z,128.3
2023-02-16T03:22:46.204Z,120.4
2023-02-16T03:25:48.170Z,113.4
2023-02-16T03:28:50.124Z,126.6
2023-02-16T03:31:52.195Z,113.6
2023-02-16T03:34:54.056Z,97.8
2023-02-16T03:37:56.029Z,105.6
2023-02-16T03:40:57.988Z,114.7
2023-02-16T03:43:59.959Z,109.3
2023-02-16T03:47:01.948Z,99.5
2023-02-16T03:50:03.877Z,100.6
2023-02-16T03:53:05.886Z,109.7
2023-02-16T03:56:07.806Z,126.2
2023-02-16T03:59:09.808Z,97.5
2023-02-16T04:02:11.819Z,122.2
2023-02-16T04:05:13.717Z,96.5
2023-02-16T04:08:15.662Z,92.3
2023-02-16T04:11:17.612Z,85.4
2023-02-16T04:14:19.563Z,71.6
2023-02-16T04:17:21.524Z,82.9
2023-02-16T04:20:23.485Z,91.4
2023-02-16T04:23:25.434Z,66.9
2023-02-16T04:26:27.405Z,85
2023-02-16T04:29:29.395Z,83.1
2023-02-16T04:32:31.361Z,75.6
2023-02-16T04:35:33.325Z,69
2023-02-16T04:38:35.533Z,85.6
2023-02-16T04:41:37.220Z,72.4
2023-02-16T04:44:39.181Z,78
2023-02-16T04:47:41.176Z,77.3
2023-02-16T04:50:43.127Z,75.2
2023-02-16T04:53:45.083Z,66.3
2023-02-16T04:56:47.068Z,75.4
2023-02-16T04:59:49.010Z,84.6
2023-02-16T05:02:50.973Z,70.9
2023-02-16T05:05:52.920Z,70.5
2023-02-16T05:08:54.908Z,71.8
2023-02-16T05:11:56.852Z,84.1
2023-02-16T05:14:58.810Z,70
2023-02-16T05:18:00.849Z,71.2
2023-02-16T05:21:03.103Z,63.5
2023-02-16T05:24:04.684Z,76.1
2023-02-16T05:27:06.636Z,84
2023-02-16T05:30:08.625Z,75.4
2023-02-16T05:33:10.578Z,71.3
2023-02-16T05:36:12.536Z,76.7
2023-02-16T05:39:14.510Z,68.7
2023-02-16T05:42:16.480Z,80.5
2023-02-16T05:45:18.447Z,62.4
2023-02-16T05:48:20.396Z,77
2023-02-16T05:51:22.369Z,73.3
2023-02-16T05:54:24.340Z,85.9
2023-02-16T05:57:26.292Z,86.7
2023-02-16T06:00:28.279Z,77.3
2023-02-16T06:03:30.285Z,66.5
2023-02-16T06:06:32.249Z,74.7
2023-02-16T06:09:34.211Z,76
2023-02-16T06:12:36.135Z,86.6
2023-02-16T06:15:38.138Z,68.9
2023-02-16T06:18:40.098Z,70.2
2023-02-16T06:21:42.049Z,83.5
2023-02-16T06:24:44.062Z,80.8
2023-02-16T06:27:46.008Z,67
2023-02-16T06:30:47.966Z,79.4
2023-02-16T06:33:49.910Z,65.9
2023-02-16T06:36:51.860Z,83.4
2023-02-16T06:39:53.799Z,75.5
2023-02-16T06:42:55.791Z,64.7
2023-02-16T06:45:57.766Z,65.1
2023-02-16T06:48:59.680Z,73.6
2023-02-16T06:52:01.693Z,74.3
2023-02-16T06:55:03.652Z,71.6
2023-02-16T06:58:05.715Z,67.1
2023-02-16T07:01:07.729Z,83
2023-02-16T07:04:09.452Z,64.3
2023-02-16T07:07:11.426Z,80.6
2023-02-16T07:10:13.416Z,66.3
2023-02-16T07:13:15.380Z,73.6
2023-02-16T07:16:17.369Z,66.5
2023-02-16T07:19:19.299Z,79.2
2023-02-16T07:22:21.264Z,74.3
2023-02-16T07:25:23.227Z,71.6
2023-02-16T07:28:25.203Z,78.3
2023-02-16T07:31:27.290Z,69.5
2023-02-16T07:34:29.140Z,71.1
2023-02-16T07:37:31.081Z,70.5
2023-02-16T07:40:33.073Z,62.3
2023-02-16T07:43:35.059Z,55.2
2023-02-16T07:46:37.008Z,53.8
2023-02-16T07:49:38.974Z,72.7
2023-02-16T07:52:40.880Z,57.4
2023-02-16T07:55:42.836Z,66.2
2023-02-16T07:58:44.821Z,57.1
2023-02-16T08:01:46.844Z,69.1
2023-02-16T08:04:48.734Z,58.7
2023-02-16T08:07:50.686Z,59.4
2023-02-16T08:10:52.634Z,57.6
2023-02-16T08:13:54.607Z,66.8
2023-02-16T08:16:56.834Z,45.9
2023-02-16T08:19:58.527Z,44.8
2023-02-16T08:23:00.544Z,41.4
2023-02-16T08:26:02.685Z,41.8
2023-02-16T08:29:04.439Z,53.8
2023-02-16T08:32:06.526Z,44.9
2023-02-16T08:35:08.374Z,53.3
2023-02-16T08:38:10.320Z,47.9
2023-02-16T08:41:12.294Z,47.1
2023-02-16T08:44:14.322Z,45.1
2023-02-16T08:47:16.218Z,50.2
2023-02-16T08:50:18.176Z,46.1
2023-02-16T08:53:20.134Z,44.9
2023-02-16T08:56:22.104Z,44.1
2023-02-16T08:59:25.114Z,46
2023-02-16T09:02:26.046Z,36.4
2023-02-16T09:05:27.960Z,38.7
2023-02-16T09:08:30.073Z,37.4
2023-02-16T09:11:31.868Z,39
2023-02-16T09:14:33.850Z,37.9
2023-02-16T09:17:35.849Z,40.7
2023-02-16T09:20:37.808Z,45
2023-02-16T09:23:40.196Z,42.6
2023-02-16T09:26:41.705Z,41.9
2023-02-16T09:29:43.663Z,41.6
2023-02-16T09:32:45.701Z,41.8
2023-02-16T09:35:47.611Z,42.5
2023-02-16T09:38:49.566Z,38.7
2023-02-16T09:41:51.536Z,44.9
2023-02-16T09:44:53.512Z,44.7
2023-02-16T09:47:55.466Z,47.1
2023-02-16T09:50:57.462Z,50.5
2023-02-16T09:53:59.430Z,50.7
2023-02-16T09:57:01.407Z,43.3
2023-02-16T10:00:03.387Z,44
2023-02-16T10:03:05.314Z,47
2023-02-16T10:06:07.282Z,37.8
2023-02-16T10:09:09.243Z,36.7
2023-02-16T10:12:11.195Z,42
2023-02-16T10:15:13.143Z,36.9
2023-02-16T10:18:15.102Z,42.6
2023-02-16T10:21:17.074Z,47.6
2023-02-16T10:24:19.026Z,35.9
2023-02-16T10:27:21.010Z,40.5
2023-02-16T10:30:22.998Z,38.8
2023-02-16T10:33:24.909Z,40.5
2023-02-16T10:36:26.908Z,37.8
2023-02-16T10:39:28.885Z,44.7
2023-02-16T10:42:30.818Z,54.3
2023-02-16T10:45:32.796Z,47.3
2023-02-16T10:48:34.752Z,45.3
2023-02-16T10:51:36.874Z,50.3
2023-02-16T10:54:38.742Z,52.4
2023-02-16T10:57:40.711Z,47.6
2023-02-16T11:00:42.650Z,46.1
2023-02-16T11:03:44.583Z,48.1
2023-02-16T11:06:46.524Z,52.9
2023-02-16T11:09:48.514Z,57.4
2023-02-16T11:12:50.458Z,57.8
2023-02-16T11:15:52.478Z,50.6
2023-02-16T11:18:54.384Z,49.1
2023-02-16T11:21:56.325Z,48.2
2023-02-16T11:24:58.292Z,49.7
2023-02-16T11:28:00.269Z,46.5
2023-02-16T11:31:02.483Z,57.5
2023-02-16T11:34:05.946Z,55.6
2023-02-16T11:37:06.186Z,56.5
2023-02-16T11:40:08.103Z,54.3
2023-02-16T11:43:10.070Z,59.5
2023-02-16T11:46:12.031Z,55.7
2023-02-16T11:49:13.986Z,63.5
2023-02-16T11:52:15.940Z,63.5
2023-02-16T11:55:17.920Z,62.5
2023-02-16T11:58:19.934Z,57.8
2023-02-16T12:01:21.847Z,57.3
2023-02-16T12:04:23.841Z,58.9
2023-02-16T12:07:25.769Z,59.7
2023-02-16T12:10:27.743Z,63.9
2023-02-16T12:13:29.704Z,55
2023-02-16T12:16:31.707Z,65.5
2023-02-16T12:19:33.621Z,67.6
2023-02-16T12:22:35.580Z,57.1
2023-02-16T12:25:37.580Z,57.9
2023-02-16T12:28:39.495Z,51
2023-02-16T12:31:41.480Z,55.2
2023-02-16T12:34:43.420Z,52
2023-02-16T12:37:45.377Z,52.1
2023-02-16T12:40:47.376Z,63
2023-02-16T12:43:49.594Z,50.9
2023-02-16T12:46:51.282Z,56.2
2023-02-16T12:49:53.266Z,58.5
2023-02-16T12:52:55.228Z,67
2023-02-16T12:55:57.212Z,47.6
2023-02-16T12:58:59.171Z,55.3
2023-02-16T13:02:01.232Z,52.8
2023-02-16T13:05:03.130Z,50.1
2023-02-16T13:08:05.072Z,50.3
2023-02-16T13:11:07.396Z,56.9
2023-02-16T13:14:09.002Z,60.8
2023-02-16T13:17:11.015Z,60.1
2023-02-16T13:20:12.948Z,58.6
2023-02-16T13:23:14.892Z,52.7
2023-02-16T13:26:16.941Z,49.7
2023-02-16T13:29:18.886Z,47.8
2023-02-16T13:32:21.199Z,54.2
2023-02-16T13:35:22.821Z,50
2023-02-16T13:38:24.801Z,50.6
2023-02-16T13:41:26.732Z,53.3
2023-02-16T13:44:28.722Z,46.3
2023-02-16T13:47:30.682Z,44.9
2023-02-16T13:50:32.646Z,51.4
2023-02-16T13:53:34.612Z,41.4
2023-02-16T13:56:36.577Z,40.2
2023-02-16T13:59:38.549Z,42.8
2023-02-16T14:02:40.534Z,37.8
2023-02-16T14:05:42.526Z,33.9
2023-02-16T14:08:44.569Z,35.4
2023-02-16T14:11:46.476Z,39.9
2023-02-16T14:14:50.257Z,37
2023-02-16T14:17:50.376Z,38.7
2023-02-16T14:20:52.341Z,39.3
2023-02-16T14:23:54.296Z,40.7
2023-02-16T14:26:56.276Z,37.5
2023-02-16T14:29:58.249Z,38.2
2023-02-16T14:33:00.190Z,42
2023-02-16T14:36:02.130Z,44.6
2023-02-16T14:39:04.120Z,38.4
2023-02-16T14:42:06.298Z,42.4
2023-02-16T14:45:08.054Z,40.4
2023-02-16T14:48:09.988Z,36
2023-02-16T14:51:11.952Z,40.9
2023-02-16T14:54:15.246Z,39.6
2023-02-16T14:57:15.852Z,36.6
2023-02-16T15:00:17.804Z,36.1
2023-02-16T15:03:21.640Z,40.9
2023-02-16T15:06:21.783Z,35.3
2023-02-16T15:09:23.740Z,39.9
2023-02-16T15:12:25.699Z,46.9
2023-02-16T15:15:27.669Z,42.1
2023-02-16T15:18:29.620Z,37.4
2023-02-16T15:21:31.670Z,44.3
2023-02-16T15:24:33.536Z,35.8
2023-02-16T15:27:35.521Z,37.6
2023-02-16T15:30:37.467Z,38.9
2023-02-16T15:33:39.456Z,36.8
2023-02-16T15:36:41.419Z,37.3
2023-02-16T15:39:56.124Z,41.4
2023-02-16T15:42:45.333Z,33.6
2023-02-16T15:45:47.287Z,41.8
2023-02-16T15:48:49.244Z,42.4
2023-02-16T15:51:51.223Z,47.1
2023-02-16T15:54:53.190Z,38
2023-02-16T15:57:55.131Z,37.9
2023-02-16T16:00:57.105Z,40.1
2023-02-16T16:03:59.069Z,41.3
2023-02-16T16:07:01.024Z,37.4
2023-02-16T16:10:02.984Z,35.1
2023-02-16T16:13:04.993Z,33.1
2023-02-16T16:16:07.391Z,33
2023-02-16T16:19:08.922Z,34.3
2023-02-16T16:22:10.917Z,35.3
2023-02-16T16:25:12.806Z,32
2023-02-16T16:28:14.753Z,39.3
2023-02-16T16:31:16.838Z,42
2023-02-16T16:34:18.674Z,45.8
2023-02-16T16:37:20.627Z,39.2
2023-02-16T16:40:22.615Z,45
2023-02-16T16:43:24.633Z,41.8
2023-02-16T16:46:26.535Z,39.3
2023-02-16T16:49:28.518Z,38.2
2023-02-16T16:52:30.488Z,43.1
2023-02-16T16:55:32.432Z,49.5
2023-02-16T16:58:34.419Z,47.3
2023-02-16T17:01:38.302Z,37.9
2023-02-16T17:04:38.417Z,41.7
2023-02-16T17:07:40.342Z,40
2023-02-16T17:10:42.299Z,35
2023-02-16T17:13:44.244Z,38.4
2023-02-16T17:16:46.347Z,37.6
2023-02-16T17:19:48.234Z,45.1
2023-02-16T17:22:50.138Z,37.4
2023-02-16T17:25:52.109Z,45.4
2023-02-16T17:28:54.054Z,42.8
2023-02-16T17:31:56.233Z,48.1
2023-02-16T17:34:58.001Z,49.2
2023-02-16T17:37:59.953Z,46.6
2023-02-16T17:41:01.903Z,43.7
2023-02-16T17:44:03.924Z,47.9
2023-02-16T17:47:05.794Z,45.5
2023-02-16T17:50:07.786Z,51.3
2023-02-16T17:53:09.759Z,44.2
2023-02-16T17:56:11.702Z,49.8
2023-02-16T17:59:13.674Z,43.6
2023-02-16T18:02:15.616Z,45.7
2023-02-16T18:05:17.586Z,43.4
2023-02-16T18:08:19.587Z,47.3
2023-02-16T18:11:21.588Z,50.3
2023-02-16T18:14:23.486Z,44.5
2023-02-16T18:17:25.448Z,37.4
2023-02-16T18:20:27.410Z,45.1
2023-02-16T18:23:29.382Z,38
2023-02-16T18:26:31.331Z,38
2023-02-16T18:29:33.305Z,35.5
2023-02-16T18:32:35.558Z,47.7
2023-02-16T18:35:37.268Z,43.7
2023-02-16T18:38:39.203Z,51.6
2023-02-16T18:41:41.181Z,37.1
2023-02-16T18:44:43.112Z,43
2023-02-16T18:47:45.137Z,38.3
2023-02-16T18:50:47.027Z,43.9
2023-02-16T18:53:48.977Z,51
2023-02-16T18:56:50.945Z,42.2
2023-02-16T18:59:52.904Z,41.3
2023-02-16T19:02:54.900Z,44.8
2023-02-16T19:05:56.819Z,39.5
2023-02-16T19:08:58.803Z,45.6
2023-02-16T19:12:00.764Z,40.6
2023-02-16T19:15:02.722Z,37.8
2023-02-16T19:18:04.701Z,35
2023-02-16T19:21:06.659Z,42.4
2023-02-16T19:24:08.610Z,46.1
2023-02-16T19:27:10.618Z,44.4
2023-02-16T19:30:12.634Z,46.5
2023-02-16T19:33:14.500Z,37.6
2023-02-16T19:36:16.512Z,39
2023-02-16T19:39:18.423Z,48.7
2023-02-16T19:42:20.365Z,37.8
2023-02-16T19:45:22.330Z,40
2023-02-16T19:48:24.306Z,36.9
2023-02-16T19:51:26.268Z,43
2023-02-16T19:54:28.206Z,41.1
2023-02-16T19:57:30.208Z,41.2
2023-02-16T20:00:32.116Z,38.1
2023-02-16T20:03:34.092Z,36
2023-02-16T20:06:36.049Z,38.4
2023-02-16T20:09:38.035Z,43.3
2023-02-16T20:12:39.974Z,36
2023-02-16T20:15:42.035Z,42.1
2023-02-16T20:18:44.013Z,47.3
2023-02-16T20:21:45.874Z,44.7
2023-02-16T20:24:47.826Z,41.4
2023-02-16T20:27:49.801Z,44
2023-02-16T20:30:51.784Z,42.2
2023-02-16T20:33:53.724Z,39.1
2023-02-16T20:36:55.670Z,43.6
2023-02-16T20:39:57.640Z,44.9
2023-02-16T20:42:59.602Z,42.8
2023-02-16T20:46:01.551Z,43.6
2023-02-16T20:49:03.533Z,40.6
2023-02-16T20:52:05.483Z,38.6
2023-02-16T20:55:07.440Z,43.1
2023-02-16T20:58:09.405Z,54.7
2023-02-16T21:01:11.397Z,53.8
2023-02-16T21:04:13.311Z,50.2
2023-02-16T21:07:15.295Z,45.4
2023-02-16T21:10:17.320Z,45.5
2023-02-16T21:13:19.299Z,45.1
2023-02-16T21:16:21.263Z,45.1
2023-02-16T21:19:23.650Z,48.9
2023-02-16T21:22:25.127Z,48.4
2023-02-16T21:25:27.090Z,43.9
2023-02-16T21:28:29.072Z,43.5
2023-02-16T21:31:31.099Z,47.6
2023-02-16T21:34:32.993Z,46.5
2023-02-16T21:37:34.956Z,47.3
2023-02-16T21:40:36.923Z,44.2
2023-02-16T21:43:38.919Z,47.1
2023-02-16T21:46:40.870Z,46
2023-02-16T21:49:42.953Z,52.3
2023-02-16T21:52:44.793Z,47.8
2023-02-16T21:55:46.814Z,54.7
2023-02-16T21:58:48.672Z,56.3
2023-02-16T22:01:50.659Z,46.6
2023-02-16T22:04:52.608Z,46.7
2023-02-16T22:07:54.581Z,41.8
2023-02-16T22:10:56.554Z,46.6
2023-02-16T22:13:58.509Z,49.1
2023-02-16T22:17:00.467Z,56.8
2023-02-16T22:20:02.422Z,53.1
2023-02-16T22:23:04.405Z,57.4
2023-02-16T22:26:06.604Z,47.4
2023-02-16T22:29:08.326Z,48.5
2023-02-16T22:32:10.372Z,43.5
2023-02-16T22:35:12.285Z,40.3
2023-02-16T22:38:14.238Z,40.3
2023-02-16T22:41:16.200Z,47.3
2023-02-16T22:44:18.191Z,47.4
2023-02-16T22:47:20.111Z,41.4
2023-02-16T22:50:22.062Z,52.9
2023-02-16T22:53:26.125Z,47.8
2023-02-16T22:56:26.000Z,61.9
2023-02-16T22:59:27.980Z,46.1
2023-02-16T23:02:29.961Z,47.8
2023-02-16T23:05:31.923Z,48.8
2023-02-16T23:08:33.845Z,48.2
2023-02-16T23:11:35.803Z,42.1
2023-02-16T23:14:37.785Z,42.3
2023-02-16T23:17:39.763Z,57.1
2023-02-16T23:20:41.725Z,55.2
2023-02-16T23:23:43.642Z,55
2023-02-16T23:26:45.659Z,50.7
2023-02-16T23:29:47.601Z,47.9
2023-02-16T23:32:49.530Z,43.3
2023-02-16T23:35:51.492Z,41.9
2023-02-16T23:38:53.458Z,37.7
2023-02-16T23:41:55.436Z,35.9
2023-02-16T23:44:57.376Z,42.1
2023-02-16T23:47:59.363Z,38.4
2023-02-16T23:51:01.324Z,48.4
2023-02-16T23:54:03.275Z,37.9
2023-02-16T23:57:05.263Z,34.8
